UHHH/KHV METAR and TAF weather

Enter ICAO airport designator
Station Type Date Time Source
UHHH METAR 2019/02/23 22:30 UTC NOAA

UHHH 232230Z 19002MPS 160V220 9999 FEW041 M02/M13 Q1001 R23L/090060 NOSIG RMK QFE744/0992


Station Type Date Time Source
UHHH Decoded METAR 2019/02/23 22:30 UTC NOAA

Habarovsk, Russia (UHHH) 48-31N 135-10E 76M
Feb 23, 2019 - 05:30 PM EST / 2019.02.23 2230 UTC
Wind: from the S (190 degrees) at 4 MPH (4 KT) (direction variable):0
Visibility: greater than 7 mile(s):0
Sky conditions: mostly clear
Temperature: 28 F (-2 C)
Dew Point: 8 F (-13 C)
Relative Humidity: 42%
Pressure (altimeter): 29.56 in. Hg (1001 hPa)
ob: UHHH 232230Z 19002MPS 160V220 9999 FEW041 M02/M13 Q1001 R23L/090060 NOSIG RMK QFE744/0992
cycle: 22

Station Type Date Time Source
UHHH TAF 2019/02/23 21:21 UTC NOAA

TAF TAF UHHH 231951Z 2321/2503 23007MPS 9999 BKN030CB
TEMPO 2321/2402 25010MPS
TEMPO 2402/2412 27008G13MPS 2000 SHSN SCT006 BKN015CB


Example: see airport list